Time;durP1;ratioP1;P1;durP2;ratioP2;P2;SDS_P1;SDS_P2;PMS_P1;PMS_P2;Temp;Humidity;BMP_temperature;BMP_pressure;BME280_temperature;BME280_humidity;BME280_pressure;Samples;Min_cycle;Max_cycle;Signal;HPM_P1;HPM_P2
2021/08/23 00:00:29;;;;;;;11.05;6.82;;;;;;;17.33;86.65;101824.97;5065590;28;20043;-75
2021/08/23 00:02:54;;;;;;;10.10;6.05;;;;;;;17.35;85.89;101820.91;5063822;28;20020;-75
2021/08/23 00:05:20;;;;;;;9.50;6.65;;;;;;;17.26;86.32;101821.72;5066227;28;20026;-75
2021/08/23 00:07:46;;;;;;;7.85;6.07;;;;;;;17.25;86.19;101820.91;5063298;28;20048;-75
2021/08/23 00:10:12;;;;;;;7.00;5.35;;;;;;;17.22;86.33;101816.81;5062823;28;20032;-75
2021/08/23 00:12:37;;;;;;;6.88;5.63;;;;;;;17.26;85.78;101817.09;5059973;28;20040;-75
2021/08/23 00:15:05;;;;;;;10.70;5.95;;;;;;;17.14;86.25;101811.91;5061843;28;20024;-75
2021/08/23 00:17:30;;;;;;;9.73;6.43;;;;;;;17.16;85.81;101817.88;5066352;28;20402;-75
2021/08/23 00:19:56;;;;;;;8.30;5.72;;;;;;;17.10;86.25;101818.13;5058389;28;20025;-75
2021/08/23 00:22:32;;;;;;;10.90;7.03;;;;;;;17.04;86.70;101822.69;5061562;28;20391;-75
2021/08/23 00:25:00;;;;;;;6.90;5.55;;;;;;;17.03;86.63;101823.78;5055856;28;20060;-75
2021/08/23 00:27:27;;;;;;;8.40;5.55;;;;;;;16.94;87.05;101819.16;5062974;28;20105;-75
2021/08/23 00:29:53;;;;;;;10.60;6.00;;;;;;;16.91;86.88;101824.03;5064318;28;20028;-75
2021/08/23 00:32:19;;;;;;;9.10;5.70;;;;;;;16.84;87.16;101822.63;5057156;28;20073;-75
2021/08/23 00:34:44;;;;;;;6.47;5.05;;;;;;;16.83;87.34;101818.28;5059466;28;20052;-75
2021/08/23 00:37:10;;;;;;;8.32;5.47;;;;;;;16.84;87.07;101819.91;5063238;28;20072;-75
2021/08/23 00:39:36;;;;;;;9.20;5.13;;;;;;;16.73;87.41;101820.97;5061462;28;20483;-75
2021/08/23 00:42:03;;;;;;;7.13;4.88;;;;;;;16.69;87.65;101825.25;5058832;28;20029;-75
2021/08/23 00:44:30;;;;;;;8.07;4.95;;;;;;;16.59;87.82;101825.97;5065801;28;20032;-75
2021/08/23 00:46:57;;;;;;;7.50;4.47;;;;;;;16.67;87.53;101822.81;5064198;28;20457;-75
2021/08/23 00:49:22;;;;;;;7.90;4.72;;;;;;;16.66;87.50;101826.56;5054120;28;20032;-75
2021/08/23 00:51:48;;;;;;;8.10;5.10;;;;;;;16.46;88.32;101829.97;5061475;28;20033;-75
2021/08/23 00:54:14;;;;;;;6.32;4.70;;;;;;;16.38;88.55;101827.75;5064659;28;20607;-75
2021/08/23 00:56:39;;;;;;;5.80;4.20;;;;;;;16.54;87.80;101823.25;5063701;28;20053;-75
2021/08/23 00:59:08;;;;;;;6.72;4.68;;;;;;;16.52;86.78;101830.81;5059424;28;20029;-75
2021/08/23 01:01:44;;;;;;;6.82;4.72;;;;;;;16.14;88.78;101831.88;5064472;28;20455;-75
2021/08/23 01:04:33;;;;;;;5.25;4.00;;;;;;;16.19;88.48;101834.66;5077989;28;20664;-75
2021/08/23 01:07:01;;;;;;;7.78;4.20;;;;;;;16.29;87.79;101840.13;5062571;28;21357;-75
2021/08/23 01:09:30;;;;;;;5.90;4.30;;;;;;;16.29;87.71;101843.63;5065962;28;20028;-75
2021/08/23 01:11:58;;;;;;;8.60;4.88;;;;;;;16.25;88.01;101845.22;5062052;28;20039;-75
2021/08/23 01:14:24;;;;;;;6.35;3.85;;;;;;;16.22;87.96;101843.06;5064912;28;20031;-75
2021/08/23 01:16:51;;;;;;;5.72;4.32;;;;;;;16.21;87.96;101849.53;5064509;28;20033;-75
2021/08/23 01:19:18;;;;;;;8.02;4.15;;;;;;;16.20;87.52;101844.41;5060148;28;20483;-75
2021/08/23 01:21:44;;;;;;;6.07;3.90;;;;;;;16.13;87.61;101852.69;5058286;28;20028;-75
2021/08/23 01:24:11;;;;;;;6.10;4.40;;;;;;;15.98;88.21;101848.00;5064431;28;20052;-75
2021/08/23 01:26:42;;;;;;;7.95;4.45;;;;;;;15.87;88.94;101851.69;5062821;28;20025;-75
2021/08/23 01:29:33;;;;;;;9.68;4.72;;;;;;;15.79;89.30;101849.44;5059983;28;20493;-75
2021/08/23 01:32:13;;;;;;;5.97;4.75;;;;;;;15.86;88.73;101860.03;5048978;28;20048;-75
2021/08/23 01:34:39;;;;;;;7.25;3.78;;;;;;;15.79;88.40;101854.00;5059148;28;20043;-75
2021/08/23 01:37:05;;;;;;;5.97;3.90;;;;;;;15.77;88.26;101853.47;5062493;28;20033;-75
2021/08/23 01:39:33;;;;;;;4.38;3.72;;;;;;;15.80;87.62;101855.66;5062974;28;20029;-75
2021/08/23 01:42:00;;;;;;;5.70;3.70;;;;;;;15.57;87.86;101862.16;5058334;28;20032;-75
2021/08/23 01:44:26;;;;;;;4.88;3.38;;;;;;;15.53;87.57;101866.44;5059200;28;20032;-75
2021/08/23 01:46:52;;;;;;;4.47;3.38;;;;;;;15.61;87.04;101853.31;5057555;28;20025;-75
2021/08/23 01:49:18;;;;;;;4.82;3.10;;;;;;;15.57;85.72;101851.34;5064338;28;20022;-75
2021/08/23 01:51:43;;;;;;;5.30;3.50;;;;;;;15.42;85.19;101855.50;5061962;28;20028;-75
2021/08/23 01:54:09;;;;;;;4.47;3.00;;;;;;;15.39;85.84;101858.72;5061686;28;20656;-75
2021/08/23 01:56:34;;;;;;;4.15;2.83;;;;;;;15.39;84.78;101857.91;5061973;28;20035;-76
2021/08/23 01:59:01;;;;;;;4.57;3.00;;;;;;;15.45;84.46;101858.78;5062158;28;20110;-75
2021/08/23 02:01:28;;;;;;;4.18;3.05;;;;;;;15.37;83.88;101868.16;5064399;28;20036;-75
2021/08/23 02:03:54;;;;;;;4.25;2.65;;;;;;;15.50;83.30;101861.53;5058666;28;20035;-75
2021/08/23 02:06:19;;;;;;;5.57;3.22;;;;;;;15.42;83.19;101855.50;5057975;28;20103;-75
2021/08/23 02:08:45;;;;;;;4.32;2.60;;;;;;;15.46;82.95;101858.53;5060805;28;20486;-75
2021/08/23 02:11:11;;;;;;;5.30;2.65;;;;;;;15.47;82.92;101862.06;5058637;28;20122;-75
2021/08/23 02:13:36;;;;;;;4.25;2.53;;;;;;;15.48;82.47;101856.41;5063425;28;20020;-75
2021/08/23 02:16:02;;;;;;;4.15;2.50;;;;;;;15.38;83.10;101848.97;5061476;28;20450;-75
2021/08/23 02:18:27;;;;;;;3.75;2.63;;;;;;;15.39;82.90;101856.00;5060993;28;20609;-75
2021/08/23 02:20:53;;;;;;;3.95;2.70;;;;;;;15.30;83.27;101854.84;5063281;28;20035;-75
2021/08/23 02:23:18;;;;;;;4.15;2.90;;;;;;;15.27;83.23;101852.66;5058307;28;20060;-75
2021/08/23 02:25:44;;;;;;;3.55;2.80;;;;;;;15.23;83.11;101856.91;5059903;28;20111;-75
2021/08/23 02:28:09;;;;;;;5.30;2.67;;;;;;;15.26;82.91;101851.03;5058877;28;20100;-75
2021/08/23 02:30:37;;;;;;;3.00;2.47;;;;;;;15.32;82.83;101851.88;5062594;28;20031;-75
2021/08/23 02:33:03;;;;;;;3.85;2.65;;;;;;;15.26;83.02;101856.44;5061609;28;20031;-75
2021/08/23 02:35:28;;;;;;;4.72;2.78;;;;;;;15.29;83.21;101853.22;5055510;28;20028;-75
2021/08/23 02:37:54;;;;;;;6.28;2.78;;;;;;;15.35;82.60;101846.78;5059458;28;20024;-75
2021/08/23 02:40:19;;;;;;;4.82;2.85;;;;;;;15.46;82.22;101853.13;5058480;28;20020;-75
2021/08/23 02:42:45;;;;;;;4.38;2.50;;;;;;;15.49;82.22;101846.41;5057019;28;20044;-75
2021/08/23 02:45:11;;;;;;;3.92;2.65;;;;;;;15.48;82.02;101855.59;5058870;28;20027;-75
2021/08/23 02:47:37;;;;;;;4.20;2.63;;;;;;;15.55;81.89;101856.19;5064347;28;20051;-75
2021/08/23 02:50:08;;;;;;;3.47;3.03;;;;;;;15.48;82.41;101848.28;5062273;28;20051;-75
2021/08/23 02:52:34;;;;;;;4.70;3.00;;;;;;;15.46;82.02;101853.13;5059575;28;20386;-75
2021/08/23 02:54:59;;;;;;;8.07;3.38;;;;;;;15.49;82.30;101865.31;5060824;28;20393;-75
2021/08/23 02:57:25;;;;;;;5.05;2.95;;;;;;;15.56;81.89;101865.91;5062443;28;20035;-75
2021/08/23 02:59:50;;;;;;;7.32;2.63;;;;;;;15.48;81.94;101858.28;5056642;28;20448;-75
2021/08/23 03:02:16;;;;;;;4.40;2.75;;;;;;;15.52;81.40;101870.22;5059977;28;20039;-75
2021/08/23 03:04:41;;;;;;;4.00;2.47;;;;;;;15.50;81.23;101867.75;5062425;28;20023;-75
2021/08/23 03:07:07;;;;;;;5.38;2.92;;;;;;;15.41;81.33;101870.06;5055746;28;20210;-75
2021/08/23 03:09:32;;;;;;;2.90;2.20;;;;;;;15.49;81.08;101873.41;5060624;28;20597;-75
2021/08/23 03:11:58;;;;;;;3.03;2.45;;;;;;;15.46;80.82;101863.94;5059751;28;20148;-75
2021/08/23 03:14:24;;;;;;;4.43;2.58;;;;;;;15.55;80.79;101873.22;5062159;28;20116;-75
2021/08/23 03:16:49;;;;;;;6.50;2.85;;;;;;;15.53;81.13;101877.25;5057172;28;20025;-75
2021/08/23 03:19:15;;;;;;;4.85;2.83;;;;;;;15.50;81.63;101875.03;5057990;28;20039;-75
2021/08/23 03:21:40;;;;;;;4.97;2.63;;;;;;;15.57;81.39;101872.94;5060664;28;20117;-75
2021/08/23 03:24:06;;;;;;;5.57;3.10;;;;;;;15.53;81.58;101871.84;5056237;28;20031;-75
2021/08/23 03:26:32;;;;;;;5.30;2.65;;;;;;;15.54;81.65;101878.88;5068006;28;20513;-75
2021/08/23 03:28:58;;;;;;;3.33;2.55;;;;;;;15.39;82.69;101877.63;5064420;28;20039;-75
2021/08/23 03:31:23;;;;;;;5.28;2.70;;;;;;;15.38;82.91;101884.09;5065436;28;20021;-75
2021/08/23 03:33:49;;;;;;;3.55;2.70;;;;;;;15.38;82.93;101884.09;5065591;28;20702;-75
2021/08/23 03:36:14;;;;;;;5.30;2.85;;;;;;;15.37;83.01;101882.47;5063918;28;20024;-75
2021/08/23 03:38:41;;;;;;;4.10;2.85;;;;;;;15.46;82.33;101887.44;5063177;28;20120;-75
2021/08/23 03:41:07;;;;;;;5.82;2.88;;;;;;;15.41;83.01;101888.97;5066125;28;20086;-75
2021/08/23 03:43:33;;;;;;;5.35;2.80;;;;;;;15.47;82.52;101889.06;5065206;28;20509;-75
2021/08/23 03:45:58;;;;;;;6.72;3.58;;;;;;;15.50;82.33;101888.56;5063288;28;20040;-75
2021/08/23 03:48:24;;;;;;;3.95;2.67;;;;;;;15.38;83.45;101892.19;5060147;28;20560;-75
2021/08/23 03:50:49;;;;;;;4.97;3.38;;;;;;;15.35;83.55;101895.41;5060328;28;20115;-74
2021/08/23 03:53:15;;;;;;;5.40;3.20;;;;;;;15.41;83.39;101891.69;5063223;28;20017;-74
2021/08/23 03:55:40;;;;;;;6.78;3.50;;;;;;;15.34;83.72;101890.25;5063833;28;20020;-75
2021/08/23 03:58:06;;;;;;;5.30;2.58;;;;;;;15.34;84.16;101896.47;5061150;28;20095;-74
2021/08/23 04:00:31;;;;;;;4.78;2.90;;;;;;;15.31;84.53;101893.47;5064248;28;20120;-74
2021/08/23 04:02:57;;;;;;;6.55;3.03;;;;;;;15.32;84.73;101898.63;5061903;28;20032;-74
2021/08/23 04:05:23;;;;;;;4.03;2.80;;;;;;;15.34;84.33;101898.34;5062345;28;20029;-75
2021/08/23 04:07:48;;;;;;;7.30;3.10;;;;;;;15.25;84.79;101900.66;5054089;28;20056;-75
2021/08/23 04:10:14;;;;;;;6.13;2.90;;;;;;;15.21;84.77;101902.25;5059010;28;20025;-74
2021/08/23 04:12:40;;;;;;;4.90;2.83;;;;;;;15.29;84.22;101901.81;5063817;28;20504;-74
2021/08/23 04:15:06;;;;;;;7.28;2.45;;;;;;;15.26;84.37;101905.03;5061694;28;20881;-74
2021/08/23 04:17:31;;;;;;;4.93;3.20;;;;;;;15.24;84.75;101906.31;5065235;28;20471;-77
2021/08/23 04:19:58;;;;;;;3.10;2.60;;;;;;;15.22;84.76;101911.97;5062296;28;22094;-77
2021/08/23 04:22:24;;;;;;;5.35;2.97;;;;;;;15.16;84.79;101907.59;5063058;28;20086;-78
2021/08/23 04:24:49;;;;;;;4.18;2.85;;;;;;;15.15;84.53;101911.34;5063912;28;20036;-77
2021/08/23 04:27:14;;;;;;;10.63;2.95;;;;;;;15.08;84.73;101921.50;5067453;28;20024;-77
2021/08/23 04:29:40;;;;;;;5.18;2.85;;;;;;;15.14;84.53;101917.81;5058015;28;20094;-77
2021/08/23 04:32:06;;;;;;;4.85;2.10;;;;;;;15.13;84.25;101921.59;5068795;28;20039;-77
2021/08/23 04:34:31;;;;;;;4.82;2.22;;;;;;;15.15;83.66;101924.84;5068799;28;20044;-77
2021/08/23 04:37:03;;;;;;;6.25;3.10;;;;;;;15.04;83.67;101920.38;5066711;28;20094;-78
2021/08/23 04:39:28;;;;;;;3.90;2.20;;;;;;;15.00;83.84;101933.56;5069277;28;20059;-77
2021/08/23 04:41:54;;;;;;;3.63;2.40;;;;;;;15.05;83.58;101932.78;5065910;28;20494;-78
2021/08/23 04:44:19;;;;;;;5.40;2.80;;;;;;;15.06;83.21;101942.53;5068718;28;20024;-78
2021/08/23 04:46:49;;;;;;;5.07;2.40;;;;;;;14.94;83.67;101941.84;5068269;28;20064;-78
2021/08/23 04:49:14;;;;;;;4.32;2.72;;;;;;;14.96;83.49;101939.69;5068399;28;20037;-79
2021/08/23 04:51:40;;;;;;;6.10;2.90;;;;;;;14.98;83.42;101940.25;5062642;28;20434;-78
2021/08/23 04:54:05;;;;;;;6.18;2.80;;;;;;;15.00;83.37;101938.13;5066668;28;20052;-77
2021/08/23 04:56:30;;;;;;;4.72;2.63;;;;;;;15.01;82.71;101940.59;5066114;28;20090;-77
2021/08/23 04:58:56;;;;;;;3.42;2.55;;;;;;;14.99;82.67;101934.63;5063738;28;20973;-78
2021/08/23 05:01:21;;;;;;;4.30;2.42;;;;;;;14.95;83.11;101938.06;5058010;28;20020;-77
2021/08/23 05:03:47;;;;;;;2.75;2.10;;;;;;;14.98;82.69;101938.38;5066485;28;20028;-77
2021/08/23 05:06:12;;;;;;;2.85;2.15;;;;;;;15.01;82.30;101937.88;5063594;28;20112;-77
2021/08/23 05:08:38;;;;;;;5.28;2.30;;;;;;;14.92;82.90;101949.38;5059002;28;20029;-78
2021/08/23 05:11:03;;;;;;;7.88;2.53;;;;;;;14.94;82.68;101944.53;5058937;28;20048;-77
2021/08/23 05:13:29;;;;;;;4.97;2.33;;;;;;;14.99;82.61;101952.69;5062664;28;20032;-76
2021/08/23 05:15:55;;;;;;;4.78;2.80;;;;;;;14.99;82.20;101944.59;5063532;28;20390;-77
2021/08/23 05:18:21;;;;;;;3.42;2.22;;;;;;;15.02;81.98;101952.19;5065271;28;20029;-77
2021/08/23 05:20:46;;;;;;;5.20;2.22;;;;;;;15.03;81.78;101943.84;5062848;28;20364;-77
2021/08/23 05:23:12;;;;;;;3.75;2.25;;;;;;;14.96;81.79;101948.63;5057474;28;20024;-77
2021/08/23 05:25:37;;;;;;;4.85;2.35;;;;;;;15.06;81.03;101950.63;5065608;28;20059;-77
2021/08/23 05:28:04;;;;;;;4.07;2.53;;;;;;;15.04;81.20;101952.75;5065879;28;20021;-78
2021/08/23 05:30:30;;;;;;;5.63;2.47;;;;;;;14.95;81.46;101948.88;5066371;28;20532;-77
2021/08/23 05:32:55;;;;;;;5.82;2.13;;;;;;;15.08;80.85;101956.59;5055585;28;20128;-77
2021/08/23 05:35:21;;;;;;;4.00;2.15;;;;;;;15.05;80.79;101960.59;5060773;28;20017;-77
2021/08/23 05:37:46;;;;;;;4.20;2.10;;;;;;;15.07;80.61;101960.34;5064497;28;20031;-77
2021/08/23 05:40:12;;;;;;;3.83;2.10;;;;;;;15.01;80.70;101961.34;5065044;28;20459;-77
2021/08/23 05:42:38;;;;;;;2.92;2.25;;;;;;;15.07;80.56;101957.66;5064355;28;20025;-79
2021/08/23 05:45:04;;;;;;;3.67;2.58;;;;;;;15.16;79.98;101975.06;5064319;28;20486;-77
2021/08/23 05:47:30;;;;;;;3.80;2.05;;;;;;;15.16;79.92;101960.75;5056111;28;20024;-77
2021/08/23 05:49:56;;;;;;;4.28;2.22;;;;;;;15.19;79.61;101968.34;5054325;28;20102;-77
2021/08/23 05:52:22;;;;;;;2.67;2.10;;;;;;;15.11;79.96;101969.63;5057606;28;20024;-77
2021/08/23 05:54:48;;;;;;;3.95;2.50;;;;;;;15.18;79.78;101972.94;5064023;28;20043;-78
2021/08/23 05:57:13;;;;;;;5.22;2.70;;;;;;;15.08;79.65;101973.63;5057924;28;20036;-77
2021/08/23 05:59:39;;;;;;;3.40;1.90;;;;;;;15.05;79.82;101978.69;5060340;28;20079;-78
2021/08/23 06:02:04;;;;;;;4.95;2.10;;;;;;;15.07;79.76;101977.38;5062629;28;20109;-77
2021/08/23 06:04:30;;;;;;;3.55;2.40;;;;;;;15.18;79.12;101985.63;5061343;28;20032;-77
2021/08/23 06:06:56;;;;;;;4.47;2.10;;;;;;;15.12;79.38;101982.03;5057744;28;20388;-78
2021/08/23 06:09:21;;;;;;;3.63;2.13;;;;;;;15.19;79.07;101985.38;5062087;28;20096;-77
2021/08/23 06:11:47;;;;;;;5.63;2.47;;;;;;;15.22;78.81;101978.66;5055617;28;20036;-78
2021/08/23 06:14:13;;;;;;;5.05;2.35;;;;;;;15.23;78.68;101986.50;5056896;28;20043;-77
2021/08/23 06:16:39;;;;;;;6.18;1.98;;;;;;;15.14;78.99;101982.59;5058585;28;20032;-77
2021/08/23 06:19:05;;;;;;;3.88;2.30;;;;;;;15.16;79.30;101985.88;5056217;28;21656;-77
2021/08/23 06:21:31;;;;;;;2.85;2.20;;;;;;;15.13;79.60;101986.38;5061614;28;20028;-78
2021/08/23 06:23:57;;;;;;;3.00;2.00;;;;;;;15.18;79.74;101991.03;5054215;28;20057;-77
2021/08/23 06:26:23;;;;;;;4.07;2.28;;;;;;;15.42;78.63;101987.03;5058406;28;20441;-77
2021/08/23 06:28:48;;;;;;;6.43;2.47;;;;;;;15.67;78.44;101986.56;5063028;28;20024;-77
2021/08/23 06:31:14;;;;;;;4.70;2.10;;;;;;;15.76;78.01;101993.16;5055036;28;20024;-78
2021/08/23 06:33:39;;;;;;;6.03;2.50;;;;;;;15.77;77.58;102002.91;5058529;28;20575;-77
2021/08/23 06:36:05;;;;;;;4.85;2.20;;;;;;;15.98;77.11;102002.09;5061594;28;20036;-78
2021/08/23 06:38:30;;;;;;;4.68;1.70;;;;;;;16.07;76.77;102007.84;5049419;28;20040;-77
2021/08/23 06:40:56;;;;;;;2.60;1.80;;;;;;;16.18;75.92;102003.38;5058446;28;20059;-78
2021/08/23 06:43:22;;;;;;;2.58;1.70;;;;;;;16.15;75.98;102007.38;5061646;28;20021;-77
2021/08/23 06:45:47;;;;;;;5.90;2.00;;;;;;;16.37;75.58;102011.94;5061785;28;20028;-77
2021/08/23 06:48:13;;;;;;;3.08;1.80;;;;;;;16.48;74.87;102009.06;5062155;28;20024;-77
2021/08/23 06:50:38;;;;;;;4.20;2.10;;;;;;;16.41;74.67;102016.56;5060326;28;20541;-77
2021/08/23 06:53:04;;;;;;;3.20;1.80;;;;;;;16.69;72.84;102011.97;5058895;28;20099;-77
2021/08/23 06:55:31;;;;;;;5.50;1.83;;;;;;;16.98;72.62;102012.47;5062204;28;20686;-77
2021/08/23 06:57:56;;;;;;;3.65;1.50;;;;;;;17.19;71.15;102011.53;5058435;28;20039;-77
2021/08/23 07:00:22;;;;;;;4.28;1.60;;;;;;;17.34;70.46;102006.19;5061169;28;20115;-77
2021/08/23 07:02:48;;;;;;;1.83;1.30;;;;;;;17.38;68.99;102006.47;5058619;28;20719;-77
2021/08/23 07:05:13;;;;;;;3.25;1.50;;;;;;;17.45;68.53;102009.78;5059623;28;20043;-77
2021/08/23 07:07:39;;;;;;;3.53;1.83;;;;;;;17.57;69.88;101999.53;5057557;28;20510;-78
2021/08/23 07:10:09;;;;;;;5.93;1.38;;;;;;;17.72;69.06;102018.59;5061861;28;20482;-78
2021/08/23 07:12:34;;;;;;;5.63;2.13;;;;;;;17.85;69.00;102013.78;5062507;28;20021;-77
2021/08/23 07:15:00;;;;;;;3.58;1.50;;;;;;;17.89;67.22;102014.88;5059728;28;20087;-78
2021/08/23 07:17:25;;;;;;;2.75;1.40;;;;;;;18.16;67.76;102014.69;5058624;28;20120;-77
2021/08/23 07:19:51;;;;;;;2.67;1.77;;;;;;;18.16;66.31;102023.63;5054838;28;20497;-78
2021/08/23 07:22:19;;;;;;;2.15;1.25;;;;;;;18.41;66.49;102015.53;5056373;28;20743;-79
2021/08/23 07:24:45;;;;;;;4.18;1.85;;;;;;;18.44;65.49;102025.03;5055479;28;20082;-78
2021/08/23 07:27:10;;;;;;;2.55;1.50;;;;;;;18.46;64.61;102016.63;5057287;28;20060;-77
2021/08/23 07:29:37;;;;;;;2.90;1.40;;;;;;;18.56;65.01;102022.06;5054594;28;20044;-77
2021/08/23 07:32:03;;;;;;;3.13;1.70;;;;;;;18.51;64.07;102019.34;5065703;28;20028;-79
2021/08/23 07:34:28;;;;;;;1.65;1.38;;;;;;;18.53;65.01;102022.59;5060373;28;20040;-77
2021/08/23 07:36:54;;;;;;;2.67;1.30;;;;;;;18.65;64.42;102036.75;5056912;28;20024;-78
2021/08/23 07:39:19;;;;;;;4.25;1.05;;;;;;;18.69;63.98;102029.72;5056238;28;20041;-78
2021/08/23 07:41:45;;;;;;;1.38;1.00;;;;;;;18.94;63.27;102023.44;5060151;28;20047;-79
2021/08/23 07:44:10;;;;;;;2.35;1.25;;;;;;;18.97;62.45;102026.41;5061063;28;20112;-78
2021/08/23 07:46:36;;;;;;;1.60;1.15;;;;;;;19.12;61.50;102028.31;5052639;28;20710;-77
2021/08/23 07:49:02;;;;;;;2.00;1.30;;;;;;;19.40;60.69;102031.53;5059946;28;20029;-78
2021/08/23 07:51:28;;;;;;;2.05;1.30;;;;;;;19.52;60.10;102021.94;5064165;28;20078;-78
2021/08/23 07:53:53;;;;;;;2.95;1.10;;;;;;;19.71;59.22;102032.25;5063724;28;20385;-78
2021/08/23 07:56:19;;;;;;;2.65;1.35;;;;;;;19.60;57.18;102032.31;5060111;28;20031;-78
2021/08/23 07:58:44;;;;;;;2.40;1.13;;;;;;;19.65;57.24;102034.19;5062754;28;20093;-77
2021/08/23 08:01:10;;;;;;;1.70;1.30;;;;;;;19.68;55.56;102032.81;5057509;28;20020;-77
2021/08/23 08:03:35;;;;;;;3.20;1.73;;;;;;;19.98;56.09;102042.75;5061568;28;20029;-78
2021/08/23 08:06:01;;;;;;;2.05;1.17;;;;;;;20.08;54.77;102038.06;5054344;28;20028;-78
2021/08/23 08:08:28;;;;;;;2.70;1.15;;;;;;;19.96;54.34;102044.94;5054827;28;20570;-77
2021/08/23 08:10:55;;;;;;;1.45;1.15;;;;;;;19.89;53.41;102058.81;5059066;28;20020;-78
2021/08/23 08:13:22;;;;;;;3.05;1.05;;;;;;;19.81;53.13;102052.06;5066007;28;20027;-78
2021/08/23 08:15:47;;;;;;;2.38;1.15;;;;;;;19.65;52.96;102058.66;5055655;28;20407;-78
2021/08/23 08:18:13;;;;;;;2.17;1.00;;;;;;;19.57;51.24;102059.22;5062682;28;20112;-77
2021/08/23 08:20:38;;;;;;;3.45;1.17;;;;;;;19.50;52.94;102062.19;5065635;28;20024;-80
2021/08/23 08:23:04;;;;;;;1.90;1.20;;;;;;;19.71;51.63;102059.44;5063144;28;20032;-78
2021/08/23 08:25:30;;;;;;;5.07;1.63;;;;;;;19.85;51.55;102061.28;5056494;28;20033;-78
2021/08/23 08:27:55;;;;;;;1.98;1.20;;;;;;;20.06;52.15;102064.72;5061329;28;20190;-77
2021/08/23 08:30:22;;;;;;;4.20;1.20;;;;;;;20.28;51.92;102067.03;5057720;28;20487;-77
2021/08/23 08:32:48;;;;;;;1.88;1.10;;;;;;;20.48;52.06;102079.78;5062392;28;20128;-78
2021/08/23 08:35:14;;;;;;;3.20;1.70;;;;;;;20.44;50.52;102074.06;5065943;28;20139;-77
2021/08/23 08:37:40;;;;;;;5.18;1.40;;;;;;;20.54;51.22;102081.38;5059478;28;20104;-78
2021/08/23 08:40:07;;;;;;;3.28;1.40;;;;;;;20.38;48.98;102082.53;5059427;28;20676;-78
2021/08/23 08:42:32;;;;;;;1.77;1.00;;;;;;;20.63;49.34;102078.84;5061798;28;20518;-79
2021/08/23 08:44:58;;;;;;;1.65;1.20;;;;;;;20.31;49.11;102068.41;5068783;28;20047;-77
2021/08/23 08:47:24;;;;;;;3.47;1.40;;;;;;;20.06;49.38;102085.69;5073495;28;20017;-77
2021/08/23 08:49:51;;;;;;;2.20;1.30;;;;;;;20.06;50.67;102085.69;5064438;28;20472;-77
2021/08/23 08:52:19;;;;;;;3.22;1.38;;;;;;;19.81;48.66;102101.03;5063843;28;20032;-78
2021/08/23 08:54:45;;;;;;;1.73;1.25;;;;;;;19.92;48.96;102088.19;5064880;28;20024;-78
2021/08/23 08:57:11;;;;;;;2.90;1.20;;;;;;;20.05;49.45;102087.59;5060244;28;20501;-78
2021/08/23 08:59:37;;;;;;;3.20;1.35;;;;;;;20.19;49.57;102096.78;5066143;28;20060;-78
2021/08/23 09:02:05;;;;;;;4.93;1.38;;;;;;;20.56;48.46;102092.78;5062484;28;20067;-77
2021/08/23 09:04:35;;;;;;;3.20;1.55;;;;;;;20.56;47.44;102089.25;5063562;28;20036;-78
2021/08/23 09:07:00;;;;;;;2.97;1.20;;;;;;;20.25;46.71;102094.84;5062274;28;20029;-78
2021/08/23 09:09:27;;;;;;;3.17;1.40;;;;;;;20.32;48.05;102098.06;5065326;28;20027;-77
2021/08/23 09:12:05;;;;;;;2.45;1.10;;;;;;;20.57;47.15;102099.84;5064689;28;20028;-77
2021/08/23 09:14:31;;;;;;;2.97;1.48;;;;;;;20.64;47.10;102092.16;5062777;28;20020;-78
2021/08/23 09:17:08;;;;;;;3.85;1.30;;;;;;;20.70;46.65;102099.22;5065011;28;20490;-77
2021/08/23 09:19:36;;;;;;;2.90;1.33;;;;;;;20.89;47.71;102106.72;5058266;28;20458;-77
2021/08/23 09:22:06;;;;;;;5.70;1.40;;;;;;;20.56;46.76;102100.13;5058518;28;20490;-77
2021/08/23 09:24:34;;;;;;;3.88;1.42;;;;;;;20.81;46.43;102095.31;5055683;28;20401;-78
2021/08/23 09:27:06;;;;;;;2.22;1.42;;;;;;;20.65;46.11;102101.19;5061552;28;20025;-78
2021/08/23 09:29:55;;;;;;;1.92;1.10;;;;;;;21.01;45.97;102107.16;5063613;28;20520;-77
2021/08/23 09:32:29;;;;;;;3.40;1.20;;;;;;;21.23;46.22;102106.69;5050353;28;20044;-78
2021/08/23 09:34:56;;;;;;;4.03;1.45;;;;;;;21.29;45.00;102111.84;5061553;28;20020;-78
2021/08/23 09:37:27;;;;;;;2.97;1.45;;;;;;;21.03;45.06;102102.25;5059047;28;20549;-78
2021/08/23 09:39:54;;;;;;;4.13;1.38;;;;;;;21.19;44.46;102101.00;5064692;28;20055;-78
2021/08/23 09:42:21;;;;;;;7.07;1.45;;;;;;;20.83;44.60;102107.88;5060494;28;20028;-78
2021/08/23 09:44:51;;;;;;;5.20;1.67;;;;;;;20.73;44.49;102104.09;5059529;28;20116;-77
2021/08/23 09:47:17;;;;;;;6.07;1.40;;;;;;;20.59;44.53;102105.81;5058106;28;20063;-79
2021/08/23 09:49:47;;;;;;;3.50;1.45;;;;;;;20.33;44.71;102107.06;5058639;28;20503;-78
2021/08/23 09:52:27;;;;;;;3.42;1.52;;;;;;;20.29;44.94;102103.25;5058520;28;20146;-78
2021/08/23 09:55:06;;;;;;;3.58;1.40;;;;;;;19.96;44.76;102116.47;5059239;28;20399;-80
2021/08/23 09:57:34;;;;;;;5.30;1.27;;;;;;;20.31;45.70;102110.06;5066938;28;20034;-78
2021/08/23 10:00:00;;;;;;;4.18;1.67;;;;;;;20.36;45.34;102103.75;5059334;28;20118;-77
2021/08/23 10:02:26;;;;;;;1.92;1.30;;;;;;;20.47;44.13;102110.81;5061642;28;20115;-77
2021/08/23 10:04:54;;;;;;;3.65;1.52;;;;;;;20.40;44.20;102107.53;5063010;28;20028;-78
2021/08/23 10:07:21;;;;;;;2.33;1.40;;;;;;;20.60;44.11;102106.63;5066897;28;20063;-78
2021/08/23 10:09:48;;;;;;;2.45;1.45;;;;;;;20.65;45.11;102102.00;5066495;28;20150;-78
2021/08/23 10:12:14;;;;;;;1.88;1.20;;;;;;;21.11;44.68;102115.25;5061537;28;20032;-78
2021/08/23 10:14:42;;;;;;;4.55;1.40;;;;;;;21.41;43.66;102101.38;5053442;28;20494;-77
2021/08/23 10:17:09;;;;;;;3.25;1.50;;;;;;;21.39;43.76;102114.47;5052456;28;20165;-78
2021/08/23 10:19:35;;;;;;;3.47;1.40;;;;;;;21.27;42.76;102105.88;5059586;28;20040;-77
2021/08/23 10:22:00;;;;;;;3.63;1.60;;;;;;;21.04;42.85;102109.31;5055393;28;20025;-79
2021/08/23 10:24:30;;;;;;;2.38;1.27;;;;;;;20.93;43.17;102113.22;5062969;28;20033;-79
2021/08/23 10:26:57;;;;;;;4.20;1.65;;;;;;;21.06;42.76;102107.94;5064364;28;20521;-78
2021/08/23 10:29:23;;;;;;;3.75;1.73;;;;;;;21.04;42.15;102109.31;5058997;28;20399;-79
2021/08/23 10:31:49;;;;;;;2.65;1.35;;;;;;;21.14;42.94;102114.66;5055586;28;20034;-80
2021/08/23 10:34:20;;;;;;;3.10;1.30;;;;;;;21.01;42.54;102101.72;5052473;28;20040;-77
2021/08/23 10:36:48;;;;;;;3.22;1.40;;;;;;;20.95;40.72;102105.56;5065549;28;20025;-77
2021/08/23 10:39:19;;;;;;;2.67;1.50;;;;;;;20.96;41.63;102104.47;5062714;28;20077;-77
2021/08/23 10:41:46;;;;;;;4.28;1.45;;;;;;;21.00;42.32;102111.78;5061010;28;20462;-79
2021/08/23 10:44:12;;;;;;;3.88;1.80;;;;;;;21.12;41.97;102112.22;5061848;28;20024;-77
2021/08/23 10:46:39;;;;;;;4.75;1.67;;;;;;;20.73;42.11;102106.81;5059759;28;20032;-77
2021/08/23 10:49:15;;;;;;;2.95;1.67;;;;;;;20.87;42.24;102108.91;5059006;28;20032;-79
2021/08/23 10:51:55;;;;;;;3.42;1.50;;;;;;;20.83;42.79;102105.94;5054010;28;20029;-79
2021/08/23 10:54:34;;;;;;;3.35;1.55;;;;;;;20.79;43.00;102113.84;5054287;28;20663;-78
2021/08/23 10:57:00;;;;;;;4.05;1.95;;;;;;;20.73;43.44;102101.38;5061519;28;20024;-78
2021/08/23 10:59:46;;;;;;;3.95;1.67;;;;;;;20.84;43.26;102109.50;5063182;28;20534;-77
2021/08/23 11:02:14;;;;;;;5.57;1.50;;;;;;;21.02;43.55;102103.34;5060467;28;20037;-78
2021/08/23 11:05:06;;;;;;;3.00;1.60;;;;;;;20.94;43.42;102110.19;5058178;28;20388;-77
2021/08/23 11:07:33;;;;;;;2.42;1.35;;;;;;;20.92;44.40;102106.13;5054568;28;20032;-78
2021/08/23 11:10:13;;;;;;;4.65;1.40;;;;;;;21.16;43.58;102114.38;5058236;28;20100;-79
2021/08/23 11:12:49;;;;;;;6.18;1.40;;;;;;;21.25;44.24;102108.06;5068089;28;20060;-77
2021/08/23 11:15:24;;;;;;;2.25;1.48;;;;;;;21.30;44.20;102107.19;5071292;28;20031;-78
2021/08/23 11:17:51;;;;;;;;;;;;;;;21.28;43.46;102109.41;5059230;28;20029;-78
2021/08/23 11:20:23;;;;;;;3.58;1.48;;;;;;;21.27;43.62;102103.13;5053882;28;19950;-77
2021/08/23 11:22:52;;;;;;;3.30;1.65;;;;;;;21.52;43.76;102110.25;5055811;28;20053;-80